Flight Track Log - Related Links

Times and Time Zones

All times are in EDT time to prevent confusion due to time zone crossing. See the FDX1570 flight status page for this flight to view local times or setup timezone preferences in your user account.

Time Position Orientation Groundspeed Altitude Reporting Facility
EDT Latitude Longitude Course Direction KTS MPH feet Rate Location/Type
Thu 04:11:50 AM 35.0167 -89.9667 180° South 178 205 1,100  Level KMEM
Thu 04:12:08 AM 35.0000 -89.9667 180° South 178 205 2,000 2,163 Climbing KMEM
Thu 04:13:16 AM 34.9500 -89.9500 165° South 240 276 4,200 2,634 Climbing KMEM
Thu 04:14:11 AM 34.9167 -89.8833 121° Southeast 260 299 7,400 3,375 Climbing KMEM
Thu 04:15:08 AM 34.9500 -89.8000 64° Northeast 284 327 10,500 2,581 Climbing KMEM
Thu 04:15:44 AM 34.9703 -89.7514 63° Northeast 331 381 11,400 1,625 Climbing Memphis Center
Thu 04:16:44 AM 35.0178 -89.6447 61° Northeast 341 392 13,100 2,150 Climbing Memphis Center
Thu 04:17:44 AM 35.0692 -89.5275 62° Northeast 356 410 15,700 2,400 Climbing Memphis Center
Thu 04:18:44 AM 35.1206 -89.4075 62° Northeast 384 442 17,900 2,050 Climbing Memphis Center
Thu 04:19:44 AM 35.1697 -89.2978 61° Northeast 395 455 19,800 2,000 Climbing Memphis Center
Thu 04:20:44 AM 35.2269 -89.1700 61° Northeast 417 480 21,900 1,900 Climbing Memphis Center
Thu 04:21:44 AM 35.2903 -89.0444 58° Northeast 423 487 23,600 1,700 Climbing Memphis Center
Thu 04:22:44 AM 35.3578 -88.9111 58° Northeast 442 509 25,300 1,464 Climbing Memphis Center
Thu 04:27:57 AM 35.7700 -88.2090 58° Northeast 496 571 32,700 1,598 Climbing FlightAware ADS-B
Thu 04:28:37 AM 35.8260 -88.1130 54° Northeast 489 563 34,700 2,250 Climbing FlightAware ADS-B
Thu 04:29:17 AM 35.8780 -88.0250 54° Northeast 485 558 35,700 1,694 Climbing FlightAware ADS-B
Thu 04:30:02 AM 35.9370 -87.9230 54° Northeast 472 543 37,100 1,533 Climbing FlightAware ADS-B
Thu 04:30:47 AM 35.9940 -87.8250 54° Northeast 471 542 38,000 988 Climbing FlightAware ADS-B
Thu 04:31:27 AM 36.0440 -87.7400 54° Northeast 474 545 38,500 750 Climbing FlightAware ADS-B
Thu 04:32:07 AM 36.0970 -87.6500 54° Northeast 475 547 39,000 353 Climbing FlightAware ADS-B
Thu 04:32:52 AM 36.1550 -87.5500 54° Northeast 476 548 39,000  Level FlightAware ADS-B
Thu 04:33:32 AM 36.2070 -87.4610 54° Northeast 475 547 39,000  Level FlightAware ADS-B
Thu 04:34:17 AM 36.2630 -87.3640 54° Northeast 473 544 39,000  Level FlightAware ADS-B
Thu 04:34:57 AM 36.3140 -87.2740 55° Northeast 473 544 39,000  Level FlightAware ADS-B
Thu 04:35:37 AM 36.3640 -87.1880 54° Northeast 472 543 39,000  Level FlightAware ADS-B
Thu 04:36:17 AM 36.4160 -87.0970 55° Northeast 472 543 39,000  Level FlightAware ADS-B
Thu 04:37:02 AM 36.4740 -86.9950 55° Northeast 472 543 39,000  Level FlightAware ADS-B
Thu 04:37:42 AM 36.5240 -86.9070 55° Northeast 472 543 39,000  Level FlightAware ADS-B
Thu 04:38:27 AM 36.5790 -86.8110 54° Northeast 470 541 39,000  Level FlightAware ADS-B
Thu 04:39:03 AM 36.6264 -86.7274 55° Northeast 470 541 39,000  Level FlightAware ADS-B
Thu 04:39:33 AM 36.6642 -86.6589 55° Northeast 469 540 39,000  Level FlightAware ADS-B
Thu 04:40:04 AM 36.7026 -86.5927 54° Northeast 467 537 39,000  Level FlightAware ADS-B
Thu 04:40:39 AM 36.7470 -86.5133 55° Northeast 466 536 39,000  Level FlightAware ADS-B
Thu 04:41:16 AM 36.7926 -86.4320 55° Northeast 466 536 39,000  Level FlightAware ADS-B
Thu 04:42:02 AM 36.8486 -86.3307 55° Northeast 465 535 39,000  Level FlightAware ADS-B
Thu 04:42:47 AM 36.8970 -86.2440 55° Northeast 465 535 39,000  Level FlightAware ADS-B
Thu 04:43:14 AM 36.9378 -86.1720 55° Northeast 465 535 39,000  Level FlightAware ADS-B
Thu 04:43:45 AM 36.9754 -86.1035 55° Northeast 466 536 39,000  Level FlightAware ADS-B
Thu 04:44:44 AM 37.0484 -85.9728 55° Northeast 467 537 39,000  Level FlightAware ADS-B
Thu 04:45:14 AM 37.0854 -85.9062 55° Northeast 467 537 39,000  Level FlightAware ADS-B
Thu 04:45:46 AM 37.1242 -85.8352 56° Northeast 466 536 39,000  Level FlightAware ADS-B
Thu 04:46:16 AM 37.1614 -85.7684 55° Northeast 467 537 39,000  Level FlightAware ADS-B
Thu 04:46:47 AM 37.1986 -85.6992 56° Northeast 468 539 39,000  Level FlightAware ADS-B
Thu 04:47:18 AM 37.2370 -85.6296 55° Northeast 470 541 39,000  Level FlightAware ADS-B
Thu 04:47:50 AM 37.2759 -85.5599 55° Northeast 470 541 39,000  Level FlightAware ADS-B
Thu 04:48:20 AM 37.3137 -85.4901 56° Northeast 472 543 39,000  Level FlightAware ADS-B
Thu 04:48:52 AM 37.3532 -85.4176 56° Northeast 473 544 39,000  Level FlightAware ADS-B
Thu 04:49:25 AM 37.3930 -85.3448 55° Northeast 473 544 39,000  Level FlightAware ADS-B
Thu 04:49:56 AM 37.4319 -85.2723 56° Northeast 473 544 39,000  Level FlightAware ADS-B
Thu 04:50:27 AM 37.4701 -85.2018 56° Northeast 472 543 39,000  Level FlightAware ADS-B
Thu 04:50:58 AM 37.5075 -85.1337 55° Northeast 472 543 39,000  Level FlightAware ADS-B
Thu 04:51:29 AM 37.5457 -85.0609 56° Northeast 472 543 39,000  Level FlightAware ADS-B
Thu 04:51:59 AM 37.5827 -84.9928 56° Northeast 470 541 39,000  Level FlightAware ADS-B
Thu 04:52:29 AM 37.6197 -84.9247 56° Northeast 469 540 39,000  Level FlightAware ADS-B
Thu 04:53:00 AM 37.6571 -84.8546 56° Northeast 468 539 39,000  Level FlightAware ADS-B
Thu 04:53:31 AM 37.6937 -84.7867 56° Northeast 468 539 39,000  Level FlightAware ADS-B
Thu 04:54:01 AM 37.7302 -84.7165 57° Northeast 467 537 39,000  Level FlightAware ADS-B
Thu 04:54:31 AM 37.7670 -84.6485 56° Northeast 467 537 39,000  Level FlightAware ADS-B
Thu 04:55:02 AM 37.8036 -84.5784 57° Northeast 467 537 39,000  Level FlightAware ADS-B
Thu 04:55:36 AM 37.8452 -84.5013 56° Northeast 467 537 39,000  Level FlightAware ADS-B
Thu 04:56:42 AM 37.9210 -84.3570 56° Northeast 465 535 39,000  Level FlightAware ADS-B
Thu 04:57:22 AM 37.9690 -84.2660 56° Northeast 465 535 39,000  Level FlightAware ADS-B
Thu 04:58:12 AM 38.0250 -84.1610 56° Northeast 465 535 39,000  Level FlightAware ADS-B
Thu 04:58:57 AM 38.0770 -84.0610 57° Northeast 465 535 39,000  Level FlightAware ADS-B
Thu 04:59:37 AM 38.1180 -83.9840 56° Northeast 465 535 39,000  Level FlightAware ADS-B
Thu 05:00:27 AM 38.1690 -83.8880 56° Northeast 465 535 39,000  Level FlightAware ADS-B
Thu 05:01:07 AM 38.2100 -83.8110 56° Northeast 465 535 39,000  Level FlightAware ADS-B
Thu 05:01:47 AM 38.2510 -83.7330 56° Northeast 465 535 39,000  Level FlightAware ADS-B
Thu 05:02:27 AM 38.2920 -83.6560 56° Northeast 465 535 39,000  Level FlightAware ADS-B
Thu 05:03:07 AM 38.3330 -83.5790 56° Northeast 465 535 39,000  Level FlightAware ADS-B
Thu 05:03:57 AM 38.3840 -83.4820 56° Northeast 465 535 39,000  Level FlightAware ADS-B
Thu 05:04:37 AM 38.4250 -83.4050 56° Northeast 465 535 39,000  Level FlightAware ADS-B
Thu 05:05:17 AM 38.4660 -83.3270 56° Northeast 465 535 39,000  Level FlightAware ADS-B
Thu 05:05:57 AM 38.5060 -83.2500 56° Northeast 465 535 39,000  Level FlightAware ADS-B
Thu 05:06:42 AM 38.6340 -82.9760 59° Northeast 474 545 39,000  Level FlightAware ADS-B
Thu 05:07:22 AM 38.6820 -82.8820 57° Northeast 475 547 39,000  Level FlightAware ADS-B
Thu 05:08:07 AM 38.7350 -82.7750 58° Northeast 477 549 39,000  Level FlightAware ADS-B
Thu 05:09:02 AM 38.8010 -82.6440 57° Northeast 477 549 39,000  Level FlightAware ADS-B
Thu 05:09:42 AM 38.8490 -82.5460 58° Northeast 478 550 39,000  Level FlightAware ADS-B
Thu 05:10:27 AM 38.9040 -82.4380 57° Northeast 478 550 39,000  Level FlightAware ADS-B
Thu 05:11:07 AM 38.9510 -82.3420 58° Northeast 479 551 39,000  Level FlightAware ADS-B
Thu 05:11:52 AM 39.0030 -82.2370 57° Northeast 478 550 39,000  Level FlightAware ADS-B
Thu 05:12:32 AM 39.0480 -82.1460 57° Northeast 477 549 39,000  Level FlightAware ADS-B
Thu 05:13:12 AM 39.0970 -82.0450 58° Northeast 477 549 39,000  Level FlightAware ADS-B
Thu 05:13:57 AM 39.1510 -81.9350 58° Northeast 475 547 39,000  Level FlightAware ADS-B
Thu 05:14:37 AM 39.1960 -81.8440 57° Northeast 473 544 39,000  Level FlightAware ADS-B
Thu 05:15:22 AM 39.2500 -81.7340 58° Northeast 472 543 39,000  Level FlightAware ADS-B
Thu 05:16:02 AM 39.2970 -81.6360 58° Northeast 473 544 39,000  Level FlightAware ADS-B
Thu 05:16:42 AM 39.3440 -81.5380 58° Northeast 473 544 39,000  Level FlightAware ADS-B
Thu 05:17:27 AM 39.3940 -81.4350 58° Northeast 473 544 39,000  Level FlightAware ADS-B
Thu 05:18:12 AM 39.4460 -81.3270 58° Northeast 473 544 39,000  Level FlightAware ADS-B
Thu 05:18:52 AM 39.4930 -81.2280 58° Northeast 474 545 39,000  Level FlightAware ADS-B
Thu 05:19:32 AM 39.5390 -81.1310 58° Northeast 474 545 39,000  Level FlightAware ADS-B
Thu 05:20:17 AM 39.5900 -81.0220 59° Northeast 474 545 39,000  Level FlightAware ADS-B
Thu 05:20:57 AM 39.6360 -80.9250 58° Northeast 474 545 39,000  Level FlightAware ADS-B
Thu 05:21:42 AM 39.6870 -80.8190 58° Northeast 475 547 39,000  Level FlightAware ADS-B
Thu 05:22:22 AM 39.7360 -80.7160 58° Northeast 475 547 39,000  Level FlightAware ADS-B
Thu 05:23:07 AM 39.7850 -80.6110 59° Northeast 476 548 39,000  Level FlightAware ADS-B
Thu 05:23:47 AM 39.8310 -80.5110 59° Northeast 476 548 39,000  Level FlightAware ADS-B
Thu 05:24:27 AM 39.8760 -80.4160 58° Northeast 475 547 39,000  Level FlightAware ADS-B
Thu 05:25:12 AM 39.9250 -80.3100 59° Northeast 476 548 39,000  Level FlightAware ADS-B
Thu 05:25:52 AM 39.9700 -80.2120 59° Northeast 475 547 39,000  Level FlightAware ADS-B
Thu 05:26:32 AM 40.0200 -80.1050 59° Northeast 474 545 39,000  Level FlightAware ADS-B
Thu 05:27:17 AM 40.0700 -79.9970 59° Northeast 471 542 39,000  Level FlightAware ADS-B
Thu 05:27:52 AM 40.1080 -79.9140 59° Northeast 470 541 39,000  Level FlightAware ADS-B
Thu 05:28:42 AM 40.1660 -79.7870 59° Northeast 469 540 39,000  Level FlightAware ADS-B
Thu 05:29:22 AM 40.2100 -79.6900 59° Northeast 470 541 39,000  Level FlightAware ADS-B
Thu 05:30:07 AM 40.2600 -79.5820 59° Northeast 471 542 39,000  Level FlightAware ADS-B
Thu 05:30:47 AM 40.3040 -79.4840 59° Northeast 470 541 39,000  Level FlightAware ADS-B
Thu 05:31:27 AM 40.3480 -79.3860 59° Northeast 468 539 39,000  Level FlightAware ADS-B
Thu 05:32:12 AM 40.3950 -79.2810 60° Northeast 468 539 39,000  Level FlightAware ADS-B
Thu 05:32:52 AM 40.4380 -79.1850 59° Northeast 467 537 39,000  Level FlightAware ADS-B
Thu 05:33:32 AM 40.4820 -79.0880 59° Northeast 465 535 39,000  Level FlightAware ADS-B
Thu 05:34:17 AM 40.5300 -78.9790 60° Northeast 463 533 39,000  Level FlightAware ADS-B
Thu 05:34:57 AM 40.5730 -78.8830 59° Northeast 463 533 39,000  Level FlightAware ADS-B
Thu 05:35:37 AM 40.6140 -78.7910 60° Northeast 462 532 39,000  Level FlightAware ADS-B
Thu 05:36:22 AM 40.6620 -78.6820 60° Northeast 461 531 39,000  Level FlightAware ADS-B
Thu 05:37:02 AM 40.7050 -78.5850 60° Northeast 460 529 39,000  Level FlightAware ADS-B
Thu 05:37:47 AM 40.7530 -78.4750 60° Northeast 459 528 39,000  Level FlightAware ADS-B
Thu 05:38:05 AM 40.7802 -78.4123 60° Northeast 459 528 39,000  Level FlightAware ADS-B
Thu 05:39:07 AM 40.8370 -78.2810 60° Northeast 458 527 39,000  Level FlightAware ADS-B
Thu 05:39:52 AM 40.8840 -78.1720 60° Northeast 456 525 39,000  Level FlightAware ADS-B
Thu 05:40:32 AM 40.9260 -78.0780 59° Northeast 456 525 39,000 -614 Level FlightAware ADS-B
Thu 05:41:20 AM 40.9836 -77.9428 61° Northeast 456 525 38,100 -1,133 Descending FlightAware ADS-B
Thu 05:42:02 AM 41.0282 -77.8381 61° Northeast 456 525 37,300 -1,054 Descending FlightAware ADS-B
Thu 05:42:34 AM 41.0617 -77.7597 60° Northeast 462 532 36,800 -1,014 Descending FlightAware ADS-B
Thu 05:43:13 AM 41.1026 -77.6633 61° Northeast 464 534 36,100 -1,541 Descending FlightAware ADS-B
Thu 05:43:48 AM 41.1397 -77.5764 60° Northeast 463 533 34,900 -2,294 Descending FlightAware ADS-B
Thu 05:44:21 AM 41.1746 -77.4939 61° Northeast 468 539 33,500 -2,364 Descending FlightAware ADS-B
Thu 05:45:27 AM 41.2340 -77.3540 61° Northeast 469 540 31,000 -2,324 Descending FlightAware ADS-B
Thu 05:46:12 AM 41.2830 -77.2370 61° Northeast 471 542 29,200 -1,429 Descending FlightAware ADS-B
Thu 05:46:51 AM 41.3332 -77.1191 60° Northeast 468 539 29,000 -152 Descending FlightAware ADS-B
Thu 05:47:31 AM 41.3784 -77.0172 59° Northeast 473 544 29,000  Level FlightAware ADS-B
Thu 05:48:03 AM 41.4141 -76.9376 59° Northeast 473 544 29,000  Level FlightAware ADS-B
Thu 05:48:36 AM 41.4510 -76.8552 59° Northeast 472 543 29,000  Level FlightAware ADS-B
Thu 05:49:07 AM 41.4863 -76.7776 59° Northeast 472 543 29,000  Level FlightAware ADS-B
Thu 05:49:38 AM 41.5198 -76.7025 59° Northeast 472 543 29,000 -197 Level FlightAware ADS-B
Thu 05:50:08 AM 41.5537 -76.6251 60° Northeast 469 540 28,800 -787 Descending FlightAware ADS-B
Thu 05:50:39 AM 41.5874 -76.5504 59° Northeast 471 542 28,200 -1,258 Descending FlightAware ADS-B
Thu 05:51:10 AM 41.6216 -76.4726 60° Northeast 471 542 27,500 -1,355 Descending FlightAware ADS-B
Thu 05:51:41 AM 41.6560 -76.3944 59° Northeast 474 545 26,800 -1,279 Descending FlightAware ADS-B
Thu 05:52:11 AM 41.6896 -76.3185 59° Northeast 475 547 26,200 -1,105 Descending FlightAware ADS-B
Thu 05:52:57 AM 41.7280 -76.2300 60° Northeast 474 545 25,400 -1,525 Descending FlightAware ADS-B
Thu 05:53:10 AM 41.7557 -76.1663 60° Northeast 475 547 24,700 -1,400 Descending FlightAware ADS-B
Thu 05:53:57 AM 41.8070 -76.0483 60° Northeast 467 537 24,000 -344 Descending FlightAware ADS-B
Thu 05:55:12 AM 41.8840 -75.8750 59° Northeast 460 529 24,000  Level FlightAware ADS-B
Thu 05:55:52 AM 41.9210 -75.7910 59° Northeast 460 529 24,000  Level FlightAware ADS-B
Thu 05:56:42 AM 41.9670 -75.6870 59° Northeast 460 529 24,000  Level FlightAware ADS-B
Thu 05:57:37 AM 42.0320 -75.5270 61° Northeast 448 516 24,000 -253 Level FlightAware ADS-B
Thu 05:58:17 AM 42.0770 -75.4220 60° Northeast 448 516 23,600 -825 Descending FlightAware ADS-B
Thu 05:58:57 AM 42.1180 -75.3260 60° Northeast 440 506 22,900 -1,412 Descending FlightAware ADS-B
Thu 05:59:42 AM 42.1640 -75.2180 60° Northeast 420 483 21,600 -2,100 Descending FlightAware ADS-B
Thu 06:00:17 AM 42.1930 -75.1460 61° Northeast 412 474 20,100 -2,100 Descending FlightAware ADS-B
Thu 06:01:02 AM 42.2360 -75.0470 60° Northeast 404 465 18,800 -918 Descending FlightAware ADS-B
Thu 06:01:42 AM 42.2680 -74.9720 60° Northeast 404 465 18,800  Level FlightAware ADS-B
Thu 06:02:22 AM 42.3000 -74.8980 60° Northeast 404 465 18,800  Level FlightAware ADS-B
Thu 06:03:12 AM 42.3390 -74.8050 60° Northeast 404 465 18,800  Level FlightAware ADS-B
Thu 06:03:52 AM 42.3710 -74.7300 60° Northeast 404 465 18,800  Level FlightAware ADS-B
Thu 06:04:32 AM 42.4030 -74.6560 60° Northeast 404 465 18,800 -6,500 Level FlightAware ADS-B
Thu 06:05:04 AM 42.4369 -74.5500 60° Northeast 320 368 11,000 -5,217 Descending Boston Center
Thu 06:06:04 AM 42.4658 -74.4525 68° East 262 302 10,800 -992 Descending Boston Center
Thu 06:07:05 AM 42.4947 -74.3550 68° East 266 306 9,000 -1,636 Descending Boston Center
Thu 06:08:05 AM 42.5192 -74.2625 70° East 269 310 7,500 -1,537 Descending Boston Center
Thu 06:09:06 AM 42.5497 -74.1733 65° Northeast 261 300 5,900 -1,574 Descending Boston Center
Thu 06:10:07 AM 42.5761 -74.0756 70° East 260 299 4,300 -1,190 Descending Boston Center
Thu 06:11:07 AM 42.6025 -73.9858 68° East 257 296 3,500 -545 Descending Boston Center
Thu 06:12:08 AM 42.6264 -73.9017 69° East 232 267 3,200 -694 Descending Boston Center
Thu 06:13:08 AM 42.6481 -73.8344 66° East 177 204 2,100 -843 Descending Boston Center
Thu 06:14:09 AM 42.6797 -73.8042 35° Northeast 135 155 1,500 -689 Descending Boston Center
Thu 06:15:10 AM 42.7194 -73.8078 356° North 127 146 700 -787 Descending Boston Center
Thu 06:19:00 AM 42.7333 -73.8000 61° Northeast  Level FlightAware Approximate

Login

Don't have an account? Register now (free) for customized features, flight alerts, and more!